Time;durP1;ratioP1;P1;durP2;ratioP2;P2;SDS_P1;SDS_P2;PMS_P1;PMS_P2;Temp;Humidity;BMP_temperature;BMP_pressure;BME280_temperature;BME280_humidity;BME280_pressure;Samples;Min_cycle;Max_cycle;Signal;HPM_P1;HPM_P2
2022/04/27 00:00:15;;;;;;;4.83;2.93;;;;;;;12.34;71.22;100503.74;1728113;83;21549;-80
2022/04/27 00:02:42;;;;;;;4.00;3.00;;;;;;;12.34;71.12;100507.77;1726286;83;21097;-81
2022/04/27 00:05:11;;;;;;;3.77;2.70;;;;;;;12.34;71.00;100506.42;1725881;83;22014;-79
2022/04/27 00:07:38;;;;;;;4.80;3.13;;;;;;;12.32;70.94;100509.92;1726055;83;21095;-79
2022/04/27 00:10:08;;;;;;;4.07;3.00;;;;;;;12.32;70.90;100508.05;1725955;81;21920;-79
2022/04/27 00:12:36;;;;;;;6.20;3.60;;;;;;;12.29;70.83;100510.45;1727667;83;21334;-79
2022/04/27 00:15:06;;;;;;;6.07;3.43;;;;;;;12.25;70.86;100511.53;1728192;83;21378;-79
2022/04/27 00:17:33;;;;;;;4.53;3.10;;;;;;;12.25;70.88;100516.89;1728093;83;21163;-79
2022/04/27 00:20:03;;;;;;;6.50;3.50;;;;;;;12.27;70.85;100516.07;1643583;86;22404;-80
2022/04/27 00:22:31;;;;;;;4.13;2.57;;;;;;;12.28;70.77;100513.68;1695912;84;21176;-79
2022/04/27 00:25:01;;;;;;;3.97;2.83;;;;;;;12.27;70.72;100513.93;1695908;84;21877;-79
2022/04/27 00:27:29;;;;;;;4.70;3.10;;;;;;;12.23;70.68;100516.34;1700366;83;21249;-79
2022/04/27 00:29:57;;;;;;;6.20;3.00;;;;;;;12.15;70.67;100520.91;1728846;83;21248;-79
2022/04/27 00:32:26;;;;;;;3.80;2.70;;;;;;;12.08;70.71;100521.18;1730571;83;21143;-78
2022/04/27 00:34:53;;;;;;;4.20;2.77;;;;;;;12.00;70.73;100518.22;1731176;83;21079;-77
2022/04/27 00:37:21;;;;;;;4.30;2.90;;;;;;;11.89;70.86;100527.59;1729882;83;21505;-78
2022/04/27 00:39:49;;;;;;;4.03;2.93;;;;;;;11.80;70.98;100527.80;1729285;81;21305;-77
2022/04/27 00:42:22;;;;;;;4.10;2.80;;;;;;;11.75;71.11;100531.83;1728240;83;21140;-79
2022/04/27 00:44:50;;;;;;;4.73;2.60;;;;;;;11.63;71.45;100533.94;1726813;83;21407;-79
2022/04/27 00:47:19;;;;;;;4.00;2.87;;;;;;;11.53;71.70;100536.05;1728502;83;21218;-78
2022/04/27 00:49:54;;;;;;;5.27;2.90;;;;;;;11.45;71.92;100536.04;1726390;83;21556;-78
2022/04/27 00:52:22;;;;;;;4.33;2.77;;;;;;;11.41;72.10;100534.94;1701913;83;21206;-78
2022/04/27 00:54:53;;;;;;;4.83;2.85;;;;;;;11.40;72.15;100537.88;1696018;84;21308;-77
2022/04/27 00:57:24;;;;;;;4.12;2.80;;;;;;;11.40;72.26;100541.36;1734005;82;21050;-80
2022/04/27 00:59:52;;;;;;;3.75;2.55;;;;;;;11.37;72.38;100543.22;1666608;86;21611;-80
2022/04/27 01:02:21;;;;;;;4.72;3.47;;;;;;;11.35;72.51;100548.55;1734988;82;21128;-77
2022/04/27 01:04:48;;;;;;;4.43;2.93;;;;;;;11.34;72.58;100558.98;1736274;82;21056;-79
2022/04/27 01:07:15;;;;;;;4.30;3.20;;;;;;;11.33;72.67;100560.86;1707410;82;21693;-80
2022/04/27 01:09:44;;;;;;;6.87;3.12;;;;;;;11.33;72.70;100568.08;1734917;82;21603;-79
2022/04/27 01:12:12;;;;;;;4.85;3.60;;;;;;;11.34;72.71;100572.35;1733943;82;20975;-79
2022/04/27 01:14:45;;;;;;;5.37;3.50;;;;;;;11.31;72.79;100572.87;1733023;82;22302;-79
2022/04/27 01:17:12;;;;;;;5.10;3.37;;;;;;;11.30;72.87;100572.08;1733890;82;21066;-77
2022/04/27 01:19:39;;;;;;;5.15;3.10;;;;;;;11.28;72.90;100574.99;1667724;84;21016;-79
2022/04/27 01:22:07;;;;;;;5.35;3.45;;;;;;;11.27;72.81;100569.92;1666960;85;21083;-79
2022/04/27 01:24:37;;;;;;;4.30;3.10;;;;;;;11.27;72.75;100574.73;1666971;85;21479;-79
2022/04/27 01:27:05;;;;;;;4.17;2.75;;;;;;;11.28;72.72;100576.87;1667725;84;22070;-78
2022/04/27 01:29:33;;;;;;;4.60;3.10;;;;;;;11.26;72.62;100580.35;1733979;82;21058;-80
2022/04/27 01:32:01;;;;;;;4.30;3.12;;;;;;;11.25;72.60;100575.55;1726616;83;21102;-79
2022/04/27 01:34:29;;;;;;;5.08;3.12;;;;;;;11.27;72.53;100576.06;1726260;83;21113;-79
2022/04/27 01:37:59;;;;;;;5.70;3.33;;;;;;;11.25;72.42;100574.20;1728081;83;20977;-79
2022/04/27 01:39:29;;;;;;;3.75;2.60;;;;;;;11.27;72.40;100576.06;1727307;83;21136;-80
2022/04/27 01:41:56;;;;;;;5.87;3.00;;;;;;;11.28;72.30;100567.51;1728765;83;21453;-80
2022/04/27 01:44:23;;;;;;;4.83;2.83;;;;;;;11.30;72.21;100578.76;1726531;83;21023;-79
2022/04/27 01:46:50;;;;;;;3.90;2.90;;;;;;;11.28;72.04;100579.00;1726584;83;21599;-80
2022/04/27 01:49:18;;;;;;;5.35;3.15;;;;;;;11.27;71.95;100582.75;1704938;83;21050;-79
2022/04/27 01:54:33;;;;;;;5.03;3.20;;;;;;;11.25;71.96;100576.05;1696041;84;21020;-79
2022/04/27 01:57:01;;;;;;;4.12;3.10;;;;;;;11.24;71.97;100581.13;1696213;84;21007;-75
2022/04/27 01:59:28;;;;;;;6.28;3.10;;;;;;;11.22;71.90;100583.25;1698730;84;20941;-76
2022/04/27 02:01:58;;;;;;;5.33;3.05;;;;;;;11.21;71.92;100587.00;1698826;84;21085;-76
2022/04/27 02:04:26;;;;;;;4.55;3.02;;;;;;;11.17;71.98;100585.92;1697106;84;21441;-79
2022/04/27 02:06:53;;;;;;;4.37;2.80;;;;;;;11.17;71.98;100576.56;1695575;84;21038;-80
2022/04/27 02:09:22;;;;;;;4.65;3.02;;;;;;;11.15;71.96;100587.50;1664336;84;21489;-79
2022/04/27 02:11:49;;;;;;;4.17;2.90;;;;;;;11.10;71.99;100590.16;1695256;84;21067;-79
2022/04/27 02:14:17;;;;;;;4.15;2.90;;;;;;;11.12;72.06;100591.23;1695283;84;21154;-80
2022/04/27 02:16:45;;;;;;;5.03;2.83;;;;;;;11.12;72.12;100588.55;1695284;83;21067;-78
2022/04/27 02:19:17;;;;;;;4.50;2.62;;;;;;;11.14;72.16;100586.44;1695922;84;22076;-79
2022/04/27 02:21:47;;;;;;;4.30;3.10;;;;;;;11.14;72.13;100588.57;1699360;84;21063;-79
2022/04/27 02:24:14;;;;;;;4.55;3.08;;;;;;;11.11;72.02;100590.42;1666600;86;21603;-78
2022/04/27 02:26:43;;;;;;;4.25;2.98;;;;;;;11.07;72.11;100598.70;1699985;83;21500;-79
2022/04/27 02:29:10;;;;;;;4.35;3.05;;;;;;;11.03;72.22;100594.41;1666637;86;21208;-78
2022/04/27 02:31:39;;;;;;;4.42;3.08;;;;;;;11.00;72.33;100593.58;1728364;83;20977;-79
2022/04/27 02:34:06;;;;;;;4.95;3.30;;;;;;;10.98;72.39;100601.58;1727637;83;21205;-79
2022/04/27 02:36:34;;;;;;;4.92;3.17;;;;;;;10.96;72.50;100597.84;1725750;81;21522;-78
2022/04/27 02:39:01;;;;;;;4.95;3.50;;;;;;;10.93;72.55;100598.36;1726237;83;21082;-79
2022/04/27 02:41:30;;;;;;;4.58;3.47;;;;;;;10.92;72.70;100603.41;1695531;83;21341;-78
2022/04/27 02:43:57;;;;;;;5.37;3.52;;;;;;;10.90;72.69;100597.53;1726870;81;21073;-78
2022/04/27 02:46:25;;;;;;;4.75;3.47;;;;;;;10.87;72.81;100603.92;1728321;83;20965;-79
2022/04/27 02:51:49;;;;;;;4.87;3.37;;;;;;;10.84;72.97;100609.78;1696404;83;21043;-79
2022/04/27 02:54:22;;;;;;;5.28;3.77;;;;;;;10.87;73.09;100610.61;1696023;84;21906;-80
2022/04/27 02:56:50;;;;;;;4.78;3.25;;;;;;;10.88;73.08;100606.33;1705066;82;21074;-80
2022/04/27 02:59:17;;;;;;;5.03;3.90;;;;;;;10.91;73.07;100608.48;1666600;86;21026;-80
2022/04/27 03:01:48;;;;;;;4.87;3.35;;;;;;;10.93;73.00;100612.25;1734475;82;21484;-80
2022/04/27 03:04:17;;;;;;;4.35;3.20;;;;;;;10.95;72.96;100614.92;1736171;82;20977;-79
2022/04/27 03:06:46;;;;;;;4.85;3.10;;;;;;;10.99;72.83;100616.54;1736179;82;21013;-81
2022/04/27 03:09:13;;;;;;;5.78;3.20;;;;;;;10.99;72.74;100621.38;1737645;82;21005;-80
2022/04/27 03:11:42;;;;;;;5.10;3.58;;;;;;;10.99;72.70;100625.39;1739209;82;21020;-80
2022/04/27 03:14:16;;;;;;;5.12;3.42;;;;;;;11.01;72.58;100622.45;1736943;82;21041;-79
2022/04/27 03:16:45;;;;;;;5.20;3.20;;;;;;;11.02;72.48;100626.72;1734279;82;20949;-80
2022/04/27 03:19:13;;;;;;;4.60;3.40;;;;;;;10.99;72.30;100629.91;1696150;83;21896;-79
2022/04/27 03:21:41;;;;;;;5.47;2.70;;;;;;;10.98;72.31;100634.45;1730794;83;21033;-75
2022/04/27 03:24:09;;;;;;;4.75;3.25;;;;;;;10.96;72.27;100639.27;1731402;83;20981;-77
2022/04/27 03:26:37;;;;;;;5.33;3.47;;;;;;;10.94;72.25;100638.70;1727769;83;21645;-81
2022/04/27 03:29:05;;;;;;;3.50;2.90;;;;;;;10.96;72.30;100635.80;1726452;83;21055;-77
2022/04/27 03:31:33;;;;;;;4.87;3.22;;;;;;;10.96;72.26;100634.45;1726000;83;21138;-79
2022/04/27 03:34:01;;;;;;;5.03;3.50;;;;;;;10.94;72.25;100644.05;1725973;83;21015;-81
2022/04/27 03:36:31;;;;;;;5.72;3.27;;;;;;;10.93;72.29;100638.98;1728368;83;21080;-78
2022/04/27 03:38:59;;;;;;;5.35;3.20;;;;;;;10.93;72.26;100637.11;1728368;83;21071;-80
2022/04/27 03:41:28;;;;;;;4.67;3.40;;;;;;;10.93;72.22;100639.78;1728318;83;21505;-80
2022/04/27 03:43:57;;;;;;;5.72;3.45;;;;;;;10.94;72.24;100636.03;1666867;86;21139;-79
2022/04/27 03:46:24;;;;;;;5.15;2.90;;;;;;;10.99;72.16;100641.42;1666994;84;21047;-79
2022/04/27 03:48:53;;;;;;;6.97;3.40;;;;;;;11.03;71.99;100647.06;1668475;84;21050;-80
2022/04/27 03:51:22;;;;;;;4.03;3.20;;;;;;;11.02;71.90;100651.61;1671617;83;20996;-81
2022/04/27 03:53:50;;;;;;;4.72;3.22;;;;;;;11.02;71.74;100656.95;1728815;83;21113;-81
2022/04/27 03:56:18;;;;;;;5.08;3.22;;;;;;;10.97;71.50;100663.58;1728490;83;21217;-80
2022/04/27 03:58:45;;;;;;;4.65;3.37;;;;;;;10.95;71.46;100667.03;1728241;83;21033;-80
2022/04/27 04:01:13;;;;;;;4.55;3.35;;;;;;;10.90;71.54;100672.89;1726169;81;21463;-80
2022/04/27 04:03:41;;;;;;;5.22;3.60;;;;;;;10.86;71.61;100671.77;1726127;83;21075;-80
2022/04/27 04:06:08;;;;;;;6.28;3.40;;;;;;;10.84;71.72;100672.58;1726209;83;21031;-79
2022/04/27 04:08:40;;;;;;;5.37;3.40;;;;;;;10.82;71.78;100676.82;1725619;83;21170;-79
2022/04/27 04:11:11;;;;;;;4.70;3.42;;;;;;;10.82;71.85;100684.03;1728530;83;21021;-79
2022/04/27 04:13:40;;;;;;;;;;;;;;;10.80;71.90;100682.44;1727267;83;21084;-79
2022/04/27 04:16:16;;;;;;;4.60;3.22;;;;;;;10.84;71.99;100688.07;1718796;83;20195;-79
2022/04/27 04:18:51;;;;;;;5.53;3.12;;;;;;;10.89;71.88;100684.12;1691372;84;20989;-80
2022/04/27 04:21:20;;;;;;;5.80;3.52;;;;;;;10.94;71.79;100684.67;1712281;83;21178;-79
2022/04/27 04:23:51;;;;;;;4.90;3.30;;;;;;;11.02;71.64;100690.86;1711852;83;21061;-80
2022/04/27 04:29:09;;;;;;;4.53;3.20;;;;;;;11.16;71.11;100683.23;1728672;83;21049;-80
2022/04/27 04:31:37;;;;;;;5.22;3.65;;;;;;;11.28;70.86;100683.82;1728368;83;20969;-80
2022/04/27 04:34:22;;;;;;;4.33;3.08;;;;;;;11.39;70.58;100690.86;1726547;83;21113;-77
2022/04/27 04:36:49;;;;;;;4.97;3.37;;;;;;;11.49;70.07;100693.59;1726469;83;21149;-79
2022/04/27 04:39:19;;;;;;;4.87;3.30;;;;;;;11.56;69.65;100695.23;1726779;83;20963;-79
2022/04/27 04:41:46;;;;;;;6.50;3.20;;;;;;;11.59;69.05;100692.84;1726799;83;21023;-79
2022/04/27 04:44:15;;;;;;;4.85;3.22;;;;;;;11.67;68.64;100695.00;1729460;83;20968;-78
2022/04/27 04:46:46;;;;;;;5.90;3.15;;;;;;;11.73;68.24;100702.53;1696338;83;21247;-77
2022/04/27 04:49:15;;;;;;;5.92;3.47;;;;;;;11.81;68.00;100695.33;1667529;86;21039;-80
2022/04/27 04:51:46;;;;;;;4.75;3.50;;;;;;;11.91;67.83;100700.77;1694456;83;21188;-80
2022/04/27 04:54:33;;;;;;;4.90;3.73;;;;;;;11.97;67.12;100704.25;1731791;82;21052;-80
2022/04/27 04:57:00;;;;;;;5.77;3.40;;;;;;;12.04;66.98;100704.01;1731797;82;21205;-80
2022/04/27 04:59:40;;;;;;;4.53;3.13;;;;;;;12.15;66.80;100708.34;1608142;82;21358;-78
2022/04/27 05:02:21;;;;;;;4.78;3.30;;;;;;;12.28;66.43;100710.52;1733218;82;21375;-80
2022/04/27 05:05:08;;;;;;;3.93;3.10;;;;;;;12.41;65.93;100707.33;1728562;83;21020;-79
2022/04/27 05:07:50;;;;;;;4.87;3.50;;;;;;;12.53;65.61;100707.06;1723333;83;21228;-81
2022/04/27 05:10:21;;;;;;;5.10;3.50;;;;;;;12.65;64.92;100710.84;1721758;83;21266;-80
2022/04/27 05:12:54;;;;;;;5.97;3.50;;;;;;;12.70;64.30;100708.19;1723389;83;21165;-83
2022/04/27 05:15:24;;;;;;;4.47;3.07;;;;;;;12.81;63.96;100709.78;1712952;83;21619;-80
2022/04/27 05:18:04;;;;;;;5.60;3.10;;;;;;;12.92;63.16;100713.26;1686495;84;21870;-79
2022/04/27 05:20:46;;;;;;;4.55;3.22;;;;;;;13.04;62.64;100713.80;1666766;83;21457;-81
2022/04/27 05:23:16;;;;;;;4.50;3.10;;;;;;;13.16;61.94;100716.19;1728311;83;21068;-79
2022/04/27 05:26:03;;;;;;;4.17;2.63;;;;;;;13.24;61.27;100718.37;1726375;83;21988;-79
2022/04/27 05:34:17;;;;;;;3.93;2.70;;;;;;;13.40;59.70;100729.08;1725321;83;21117;-79
2022/04/27 05:36:48;;;;;;;4.30;2.60;;;;;;;13.48;59.41;100730.66;1727203;83;21821;-78
2022/04/27 05:39:18;;;;;;;3.70;2.70;;;;;;;13.59;59.43;100726.09;1726465;83;21356;-80
2022/04/27 05:42:06;;;;;;;4.23;2.70;;;;;;;13.73;58.89;100733.83;1726679;83;21313;-80
2022/04/27 05:44:41;;;;;;;3.80;2.73;;;;;;;13.84;58.11;100735.93;1724619;83;21161;-79
2022/04/27 05:47:11;;;;;;;4.10;2.47;;;;;;;13.94;57.46;100731.06;1692530;84;21638;-78
2022/04/27 05:49:55;;;;;;;4.00;2.83;;;;;;;14.03;57.00;100732.09;1634981;87;21238;-79
2022/04/27 05:52:52;;;;;;;4.03;2.60;;;;;;;14.11;56.77;100738.23;1672191;83;21815;-78
2022/04/27 05:55:43;;;;;;;3.23;2.13;;;;;;;14.20;55.26;100734.44;1662380;86;21907;-79
2022/04/27 05:58:27;;;;;;;3.43;2.27;;;;;;;14.28;55.41;100738.70;1656765;86;21751;-78
2022/04/27 06:01:14;;;;;;;5.50;2.60;;;;;;;14.39;54.81;100735.95;1671981;84;21743;-80
2022/04/27 06:03:43;;;;;;;3.60;2.30;;;;;;;14.53;53.94;100736.96;1693839;84;21291;-79
2022/04/27 06:06:11;;;;;;;3.73;2.70;;;;;;;14.62;53.25;100739.33;1669823;84;21531;-78
2022/04/27 06:08:40;;;;;;;3.60;2.70;;;;;;;14.68;52.54;100742.25;1700292;84;21167;-79
2022/04/27 06:11:11;;;;;;;3.27;2.20;;;;;;;14.76;52.21;100732.77;1699871;84;21357;-79
2022/04/27 06:13:43;;;;;;;4.13;2.87;;;;;;;14.96;51.75;100749.29;1695093;82;21378;-80
2022/04/27 06:16:16;;;;;;;4.37;2.50;;;;;;;14.96;51.75;100749.29;1705564;82;21409;-80
2022/04/27 06:18:52;;;;;;;5.07;3.00;;;;;;;15.07;51.19;100745.97;1695265;84;21828;-80
2022/04/27 06:21:20;;;;;;;4.80;2.90;;;;;;;15.16;50.98;100747.77;1696219;84;21332;-79
2022/04/27 06:23:47;;;;;;;5.27;3.00;;;;;;;15.29;50.82;100753.58;1696609;84;21988;-80
2022/04/27 06:26:14;;;;;;;4.87;2.90;;;;;;;15.48;49.55;100754.48;1724077;83;21523;-79
2022/04/27 06:28:44;;;;;;;5.53;3.10;;;;;;;15.48;49.55;100754.48;1728727;83;21582;-78
2022/04/27 06:31:11;;;;;;;4.93;3.20;;;;;;;15.63;49.35;100754.84;1728645;83;21820;-79
2022/04/27 06:33:39;;;;;;;4.53;2.90;;;;;;;15.68;49.37;100754.29;1695949;83;21636;-78
2022/04/27 06:36:06;;;;;;;7.30;3.10;;;;;;;15.76;49.65;100753.40;1726241;83;22229;-79
2022/04/27 06:38:35;;;;;;;3.93;2.90;;;;;;;15.83;48.90;100749.29;1727115;83;21764;-80
2022/04/27 06:41:05;;;;;;;4.05;2.67;;;;;;;15.83;48.90;100749.29;1725643;83;21505;-78
2022/04/27 06:43:37;;;;;;;4.03;2.50;;;;;;;15.88;48.47;100761.88;1658853;86;21093;-79
2022/04/27 06:46:25;;;;;;;4.40;2.67;;;;;;;15.90;47.41;100765.11;1729006;83;21743;-80
2022/04/27 06:49:06;;;;;;;5.27;3.03;;;;;;;15.94;47.54;100767.47;1710203;83;21751;-80
2022/04/27 06:51:49;;;;;;;5.60;3.00;;;;;;;16.02;47.03;100767.38;1637308;84;21795;-79
2022/04/27 06:54:35;;;;;;;4.20;2.70;;;;;;;16.07;46.10;100780.80;1699946;84;21675;-78
2022/04/27 06:57:22;;;;;;;6.43;2.50;;;;;;;16.11;45.96;100775.87;1700645;84;21619;-79
2022/04/27 06:59:53;;;;;;;3.90;2.52;;;;;;;16.22;46.34;100779.23;1676847;84;21816;-77
2022/04/27 07:02:22;;;;;;;4.63;2.47;;;;;;;16.30;45.56;100785.35;1730310;83;20970;-78
2022/04/27 07:04:55;;;;;;;4.87;2.33;;;;;;;16.27;45.34;100787.27;1730403;83;21720;-78
2022/04/27 07:07:22;;;;;;;5.30;2.70;;;;;;;16.32;45.21;100787.22;1732823;82;21638;-79
2022/04/27 07:09:49;;;;;;;3.70;2.40;;;;;;;16.41;45.62;100788.70;1667406;86;21765;-78
2022/04/27 07:12:18;;;;;;;4.73;2.50;;;;;;;16.51;45.13;100787.22;1666942;86;22305;-80
2022/04/27 07:14:48;;;;;;;5.23;3.10;;;;;;;16.59;45.14;100789.83;1720512;82;21749;-78
2022/04/27 07:17:16;;;;;;;4.43;3.03;;;;;;;16.63;44.40;100790.29;1671592;84;21678;-78
2022/04/27 07:19:43;;;;;;;3.50;2.50;;;;;;;16.64;44.68;100783.80;1703786;84;21061;-80
2022/04/27 07:22:12;;;;;;;5.70;2.90;;;;;;;16.66;44.54;100787.56;1704210;84;21154;-79
2022/04/27 07:24:40;;;;;;;4.23;2.70;;;;;;;16.65;43.83;100796.76;1704902;82;20992;-79
2022/04/27 07:27:07;;;;;;;4.00;2.50;;;;;;;16.69;43.60;100795.63;1705921;84;21139;-78
2022/04/27 07:29:34;;;;;;;5.10;2.60;;;;;;;16.69;43.73;100795.63;1706968;84;21445;-78
2022/04/27 07:32:02;;;;;;;5.00;2.53;;;;;;;16.71;43.40;100806.35;1705736;84;21080;-79
2022/04/27 07:34:31;;;;;;;7.30;3.17;;;;;;;16.76;43.17;100798.78;1704525;82;21512;-78
2022/04/27 07:36:58;;;;;;;5.00;3.20;;;;;;;16.86;43.77;100799.98;1703721;84;21025;-78
2022/04/27 07:39:27;;;;;;;4.67;3.00;;;;;;;16.96;43.72;100790.38;1703754;84;20988;-79
2022/04/27 07:41:54;;;;;;;4.63;2.60;;;;;;;17.06;43.81;100792.11;1704495;82;21049;-79
2022/04/27 07:44:23;;;;;;;4.57;2.93;;;;;;;17.14;43.92;100792.78;1695983;84;21569;-79
2022/04/27 07:46:51;;;;;;;4.57;2.80;;;;;;;17.20;43.75;100795.65;1676135;85;21257;-79
2022/04/27 07:49:19;;;;;;;4.93;2.87;;;;;;;17.25;43.18;100797.48;1687271;82;20959;-79
2022/04/27 07:51:48;;;;;;;4.30;3.07;;;;;;;17.28;43.34;100794.19;1733883;82;21070;-77
2022/04/27 07:54:15;;;;;;;4.70;3.00;;;;;;;17.29;43.57;100804.68;1729098;83;21060;-78
2022/04/27 07:56:43;;;;;;;5.20;3.30;;;;;;;17.35;43.59;100805.41;1728495;83;21021;-79
2022/04/27 07:59:11;;;;;;;4.53;3.10;;;;;;;17.39;43.38;100803.70;1726479;83;21023;-80
2022/04/27 08:01:38;;;;;;;4.17;2.83;;;;;;;17.40;43.40;100805.30;1726342;83;20980;-79
2022/04/27 08:04:06;;;;;;;4.03;2.80;;;;;;;17.37;43.02;100802.39;1726356;82;21062;-79
2022/04/27 08:06:36;;;;;;;5.30;3.20;;;;;;;17.28;42.80;100814.44;1726848;83;21048;-78
2022/04/27 08:09:03;;;;;;;4.10;3.10;;;;;;;17.27;42.70;100804.16;1728939;83;21040;-78
2022/04/27 08:11:32;;;;;;;5.63;2.93;;;;;;;17.35;42.48;100817.00;1728625;83;21567;-78
2022/04/27 08:14:01;;;;;;;5.80;3.50;;;;;;;17.43;42.17;100812.81;1714067;83;20956;-78
2022/04/27 08:16:28;;;;;;;5.50;3.27;;;;;;;17.51;41.69;100812.14;1720044;81;20976;-80
2022/04/27 08:18:55;;;;;;;4.93;2.97;;;;;;;17.55;42.16;100819.90;1685091;83;21450;-79
2022/04/27 08:21:27;;;;;;;3.77;2.83;;;;;;;17.57;41.70;100816.89;1698569;84;20974;-80
2022/04/27 08:23:55;;;;;;;3.80;2.95;;;;;;;17.67;42.08;100818.60;1698536;84;21029;-79
2022/04/27 08:26:23;;;;;;;4.60;3.10;;;;;;;17.79;40.95;100824.36;1698737;84;21108;-78
2022/04/27 08:28:50;;;;;;;4.77;2.90;;;;;;;17.87;40.74;100833.14;1715081;83;21010;-78
2022/04/27 08:31:20;;;;;;;5.00;3.17;;;;;;;17.88;40.44;100823.93;1717927;83;20970;-79
2022/04/27 08:33:49;;;;;;;4.00;2.73;;;;;;;17.84;40.34;100841.84;1726788;83;21092;-79
2022/04/27 08:36:17;;;;;;;4.50;2.73;;;;;;;17.81;40.43;100828.94;1726566;83;21107;-80
2022/04/27 08:38:46;;;;;;;4.93;2.90;;;;;;;17.74;41.14;100833.90;1726805;83;21429;-78
2022/04/27 08:41:13;;;;;;;4.43;2.70;;;;;;;17.75;41.58;100826.83;1726357;83;21023;-77
2022/04/27 08:43:43;;;;;;;4.83;3.07;;;;;;;17.80;40.70;100826.78;1637650;86;21546;-79
2022/04/27 08:46:15;;;;;;;4.10;2.92;;;;;;;17.83;40.21;100834.81;1640424;87;21134;-80
2022/04/27 08:48:50;;;;;;;3.70;2.30;;;;;;;17.84;39.97;100827.54;1684747;83;22598;-78
2022/04/27 08:51:17;;;;;;;5.90;2.67;;;;;;;17.81;39.27;100840.53;1671536;84;21449;-77
2022/04/27 08:53:45;;;;;;;4.83;2.60;;;;;;;17.81;38.88;100832.42;1736293;82;21003;-78
2022/04/27 08:56:13;;;;;;;3.83;2.50;;;;;;;17.93;39.66;100836.01;1666773;86;21135;-79
2022/04/27 08:58:42;;;;;;;4.07;2.70;;;;;;;18.03;38.95;100829.05;1735952;82;21016;-79
2022/04/27 09:01:08;;;;;;;3.90;2.30;;;;;;;18.11;38.62;100840.26;1736980;82;21231;-78
2022/04/27 09:03:39;;;;;;;3.63;2.63;;;;;;;18.15;38.42;100836.64;1736802;82;21020;-79
2022/04/27 09:06:12;;;;;;;4.00;2.87;;;;;;;18.13;38.30;100836.69;1735254;82;21058;-78
2022/04/27 09:08:46;;;;;;;5.43;3.10;;;;;;;18.10;38.28;100835.41;1734813;82;38728;-79
2022/04/27 09:11:19;;;;;;;4.40;2.53;;;;;;;18.11;39.09;100836.20;1734671;82;21015;-78
2022/04/27 09:13:52;;;;;;;4.10;2.70;;;;;;;18.23;38.82;100836.52;1722618;82;21276;-79
2022/04/27 09:16:21;;;;;;;;;;;;;;;18.38;38.11;100844.84;1699007;84;21141;-80
2022/04/27 09:22:04;;;;;;;4.70;2.80;;;;;;;18.54;37.29;100835.86;1714095;83;21560;-78
2022/04/27 09:24:52;;;;;;;4.37;2.40;;;;;;;18.66;36.73;100835.59;1726541;83;21001;-79
2022/04/27 09:27:24;;;;;;;4.63;2.60;;;;;;;18.82;37.01;100837.44;1726498;83;21556;-78
2022/04/27 09:30:07;;;;;;;3.95;2.72;;;;;;;18.96;35.75;100844.95;1726945;83;25691;-77
2022/04/27 09:32:35;;;;;;;3.67;2.33;;;;;;;19.08;35.30;100829.50;1727106;83;21150;-79
2022/04/27 09:35:08;;;;;;;4.50;2.90;;;;;;;19.20;35.44;100837.08;1696055;83;21025;-78
2022/04/27 09:37:41;;;;;;;3.83;2.77;;;;;;;19.12;35.76;100822.39;1729362;83;21045;-79
2022/04/27 09:40:12;;;;;;;4.47;2.90;;;;;;;19.02;36.06;100835.34;1727484;83;21046;-80
2022/04/27 09:42:43;;;;;;;4.40;2.43;;;;;;;18.85;35.88;100825.98;1686043;83;21003;-80
2022/04/27 09:45:24;;;;;;;4.28;2.42;;;;;;;18.64;35.31;100831.02;1668921;86;21035;-79
2022/04/27 09:48:00;;;;;;;4.93;2.50;;;;;;;18.49;35.76;100829.99;1640118;83;21091;-78
2022/04/27 09:50:50;;;;;;;3.33;2.40;;;;;;;18.39;35.98;100829.66;1720700;83;20956;-78
2022/04/27 09:53:19;;;;;;;3.73;2.33;;;;;;;18.34;36.48;100846.00;1724843;83;21051;-78
2022/04/27 09:55:50;;;;;;;3.23;2.20;;;;;;;18.30;37.13;100838.81;1723798;83;21463;-78
2022/04/27 09:58:19;;;;;;;3.90;2.20;;;;;;;18.30;36.06;100830.14;1722734;83;21005;-77
2022/04/27 10:00:48;;;;;;;5.27;2.40;;;;;;;18.29;36.46;100839.33;1723123;83;20973;-77
2022/04/27 10:03:20;;;;;;;5.27;2.70;;;;;;;18.30;36.32;100834.20;1723042;83;21065;-79
2022/04/27 10:05:49;;;;;;;3.67;2.33;;;;;;;18.37;36.38;100834.59;1716956;83;21025;-80
2022/04/27 10:08:19;;;;;;;3.73;2.60;;;;;;;18.50;35.77;100820.23;1666959;86;21083;-78
2022/04/27 10:10:47;;;;;;;4.23;2.60;;;;;;;18.64;35.72;100825.61;1729245;83;21021;-78
2022/04/27 10:13:15;;;;;;;4.13;2.60;;;;;;;18.76;35.60;100828.39;1718030;83;21051;-78
2022/04/27 10:15:45;;;;;;;4.57;2.53;;;;;;;18.83;35.28;100826.85;1697480;84;20999;-77
2022/04/27 10:18:18;;;;;;;4.33;2.47;;;;;;;18.85;34.93;100827.33;1680113;84;21480;-79
2022/04/27 10:20:51;;;;;;;4.60;2.47;;;;;;;18.86;35.19;100827.59;1696689;84;21485;-80
2022/04/27 10:23:28;;;;;;;4.30;2.47;;;;;;;18.97;34.06;100822.19;1712437;83;21112;-78
2022/04/27 10:26:18;;;;;;;3.63;2.30;;;;;;;19.06;33.68;100822.81;1728638;83;20982;-78
2022/04/27 10:28:51;;;;;;;3.23;2.00;;;;;;;19.14;33.62;100824.77;1728487;83;21048;-79
2022/04/27 10:31:48;;;;;;;3.40;2.00;;;;;;;19.23;31.90;100832.41;1726683;83;21044;-78
2022/04/27 10:34:21;;;;;;;5.60;2.27;;;;;;;19.15;31.69;100840.73;1726975;81;21448;-79
2022/04/27 10:36:55;;;;;;;3.40;1.80;;;;;;;19.01;31.97;100840.52;1726788;83;21011;-79
2022/04/27 10:39:33;;;;;;;4.00;1.90;;;;;;;18.88;31.85;100837.55;1726618;83;20979;-79
2022/04/27 10:42:09;;;;;;;2.63;1.50;;;;;;;18.79;31.46;100841.28;1689801;84;21038;-79
2022/04/27 10:44:54;;;;;;;3.63;1.90;;;;;;;18.72;31.15;100839.00;1668697;86;21152;-78
2022/04/27 10:47:23;;;;;;;2.77;1.93;;;;;;;18.69;31.62;100846.34;1681396;83;21419;-80
2022/04/27 10:50:16;;;;;;;3.33;2.27;;;;;;;18.65;31.40;100845.34;1669124;86;21000;-77
2022/04/27 10:52:55;;;;;;;3.00;1.83;;;;;;;18.55;32.07;100849.08;1696900;84;21109;-78
2022/04/27 10:55:43;;;;;;;3.40;1.97;;;;;;;18.49;32.09;100847.05;1697493;84;21098;-80
2022/04/27 10:58:24;;;;;;;4.57;2.30;;;;;;;18.50;32.20;100847.29;1674494;84;21141;-79
2022/04/27 11:01:02;;;;;;;;;;;;;;;18.59;31.81;100849.27;1670031;84;21121;-79
2022/04/27 11:03:35;;;;;;;3.73;2.03;;;;;;;18.69;31.46;100844.98;1667359;86;20181;-78
2022/04/27 11:06:03;;;;;;;;;;;;;;;18.71;32.11;100842.23;1672279;86;21079;-79
2022/04/27 11:09:19;;;;;;;3.00;1.80;;;;;;;18.70;30.88;100850.11;1670041;86;20193;-78
2022/04/27 11:11:55;;;;;;;4.63;2.10;;;;;;;18.72;31.18;100855.23;1686253;84;21142;-79
2022/04/27 11:14:29;;;;;;;3.33;2.10;;;;;;;18.82;31.31;100852.33;1713040;83;20983;-79
2022/04/27 11:16:58;;;;;;;3.00;1.87;;;;;;;18.85;31.24;100850.89;1729511;83;20977;-78
2022/04/27 11:19:40;;;;;;;3.90;1.80;;;;;;;18.88;30.98;100851.08;1727779;83;21048;-78
2022/04/27 11:22:16;;;;;;;3.77;2.00;;;;;;;18.91;30.77;100846.41;1721949;83;21495;-78
2022/04/27 11:24:48;;;;;;;3.23;1.80;;;;;;;18.95;30.29;100846.07;1726404;83;21901;-80
2022/04/27 11:27:29;;;;;;;2.83;1.80;;;;;;;19.08;30.78;100859.84;1715093;83;21019;-79
2022/04/27 11:29:59;;;;;;;3.27;1.97;;;;;;;19.29;30.12;100842.02;1726526;83;21570;-79
2022/04/27 11:32:29;;;;;;;2.80;1.63;;;;;;;19.49;30.74;100835.28;1728956;83;21675;-80
2022/04/27 11:34:56;;;;;;;2.60;1.40;;;;;;;19.73;29.92;100837.67;1730146;83;21100;-76
2022/04/27 11:37:23;;;;;;;2.73;1.80;;;;;;;19.93;28.19;100843.66;1731346;83;21106;-78
2022/04/27 11:39:50;;;;;;;2.70;1.53;;;;;;;20.05;27.85;100842.52;1727957;81;21180;-78
2022/04/27 11:42:17;;;;;;;4.40;2.00;;;;;;;20.03;27.90;100839.31;1672630;83;21071;-78
2022/04/27 11:44:53;;;;;;;5.00;1.93;;;;;;;20.07;28.52;100833.49;1668336;86;21079;-78
2022/04/27 11:47:32;;;;;;;3.40;1.90;;;;;;;20.20;27.55;100834.49;1678463;84;21460;-78
2022/04/27 11:50:01;;;;;;;3.50;1.70;;;;;;;20.27;28.02;100828.05;1729458;83;21135;-80
2022/04/27 11:52:36;;;;;;;2.53;1.60;;;;;;;20.46;27.53;100837.27;1730172;83;20998;-79
2022/04/27 11:55:12;;;;;;;2.50;1.53;;;;;;;20.58;27.64;100827.98;1725640;83;21056;-79
2022/04/27 11:57:43;;;;;;;2.80;1.50;;;;;;;20.64;26.61;100828.08;1727118;83;20977;-80
2022/04/27 12:00:16;;;;;;;3.47;1.57;;;;;;;20.63;26.41;100830.53;1726548;83;21017;-79
2022/04/27 12:02:45;;;;;;;3.20;1.70;;;;;;;20.64;25.90;100836.78;1690171;84;21161;-80